createdAt,value
2023-02-17T00:01:20.958Z,5.20
2023-02-17T00:03:49.800Z,5.20
2023-02-17T00:06:19.246Z,5.30
2023-02-17T00:08:47.352Z,5.40
2023-02-17T00:11:15.396Z,5.30
2023-02-17T00:13:42.953Z,5.40
2023-02-17T00:16:15.518Z,5.20
2023-02-17T00:18:43.131Z,5.20
2023-02-17T00:21:19.636Z,5.20
2023-02-17T00:23:48.431Z,5.20
2023-02-17T00:26:17.191Z,5.40
2023-02-17T00:28:45.407Z,5.50
2023-02-17T00:31:19.077Z,5.40
2023-02-17T00:33:46.792Z,5.20
2023-02-17T00:36:20.461Z,5.00
2023-02-17T00:38:49.061Z,4.80
2023-02-17T00:41:18.154Z,4.60
2023-02-17T00:43:46.603Z,4.60
2023-02-17T00:46:17.501Z,4.90
2023-02-17T00:48:46.650Z,5.00
2023-02-17T00:51:16.917Z,4.90
2023-02-17T00:53:45.574Z,4.90
2023-02-17T00:56:13.200Z,4.80
2023-02-17T00:58:44.027Z,4.90
2023-02-17T01:01:11.921Z,5.00
2023-02-17T01:03:42.279Z,5.10
2023-02-17T01:06:23.305Z,4.90
2023-02-17T01:08:50.964Z,4.80
2023-02-17T01:11:36.739Z,4.50
2023-02-17T01:14:08.868Z,4.40
2023-02-17T01:16:37.535Z,4.10
2023-02-17T01:19:09.241Z,4.30
2023-02-17T01:21:37.276Z,4.30
2023-02-17T01:24:06.368Z,4.60
2023-02-17T01:26:36.657Z,4.80
2023-02-17T01:29:05.484Z,4.80
2023-02-17T01:31:33.468Z,5.00
2023-02-17T01:34:03.441Z,5.00
2023-02-17T01:36:31.948Z,5.10
2023-02-17T01:39:00.387Z,4.90
2023-02-17T01:41:28.827Z,5.00
2023-02-17T01:44:17.486Z,5.00
2023-02-17T01:46:47.683Z,5.00
2023-02-17T01:49:17.893Z,5.10
2023-02-17T01:51:52.478Z,5.00
2023-02-17T01:54:29.145Z,4.70
2023-02-17T01:56:58.948Z,4.60
2023-02-17T01:59:26.826Z,4.40
2023-02-17T02:01:58.671Z,4.50
2023-02-17T02:04:31.436Z,4.50
2023-02-17T02:06:59.616Z,4.60
2023-02-17T02:09:38.862Z,4.70
2023-02-17T02:12:37.132Z,4.30
2023-02-17T02:15:09.061Z,3.90
2023-02-17T02:17:51.629Z,3.60
2023-02-17T02:20:45.800Z,3.60
2023-02-17T02:23:31.842Z,3.50
2023-02-17T02:26:36.456Z,3.40
2023-02-17T02:29:28.532Z,3.40
2023-02-17T02:32:21.474Z,3.20
2023-02-17T02:35:08.896Z,3.10
2023-02-17T02:37:43.124Z,2.90
2023-02-17T02:40:12.178Z,2.80
2023-02-17T02:42:40.674Z,2.70
2023-02-17T02:45:10.477Z,2.50
2023-02-17T02:47:40.975Z,2.60
2023-02-17T02:50:11.132Z,2.60
2023-02-17T02:52:56.922Z,2.50
2023-02-17T02:55:25.531Z,2.40
2023-02-17T02:58:01.064Z,2.30
2023-02-17T03:00:54.162Z,2.30
2023-02-17T03:03:28.778Z,2.30
2023-02-17T03:06:08.522Z,2.40
2023-02-17T03:08:42.773Z,2.20
2023-02-17T03:11:10.870Z,2.20
2023-02-17T03:13:39.625Z,2.10
2023-02-17T03:16:10.836Z,2.10
2023-02-17T03:18:38.320Z,2.10
2023-02-17T03:21:15.138Z,2.10
2023-02-17T03:23:43.372Z,2.00
2023-02-17T03:26:10.882Z,2.00
2023-02-17T03:28:38.245Z,1.90
2023-02-17T03:31:05.851Z,1.80
2023-02-17T03:33:33.268Z,1.80
2023-02-17T03:36:00.672Z,1.90
2023-02-17T03:38:28.068Z,1.80
2023-02-17T03:40:55.488Z,1.70
2023-02-17T03:43:22.934Z,1.60
2023-02-17T03:45:51.139Z,1.60
2023-02-17T03:48:18.549Z,1.50
2023-02-17T03:50:45.964Z,1.50
2023-02-17T03:53:13.348Z,1.60
2023-02-17T03:55:40.794Z,1.40
2023-02-17T03:58:08.219Z,1.40
2023-02-17T04:00:35.726Z,1.30
2023-02-17T04:03:03.125Z,1.30
2023-02-17T04:05:30.579Z,1.30
2023-02-17T04:07:57.945Z,1.40
2023-02-17T04:10:25.346Z,1.40
2023-02-17T04:12:52.729Z,1.40
2023-02-17T04:15:20.244Z,1.30
2023-02-17T04:17:47.644Z,1.40
2023-02-17T04:20:15.054Z,1.30
2023-02-17T04:22:42.536Z,1.30
2023-02-17T04:25:09.970Z,1.30
2023-02-17T04:27:37.364Z,1.20
2023-02-17T04:30:07.026Z,1.30
2023-02-17T04:32:34.455Z,1.40
2023-02-17T04:35:01.988Z,1.30
2023-02-17T04:37:29.401Z,1.20
2023-02-17T04:39:56.882Z,1.20
2023-02-17T04:42:24.331Z,1.20
2023-02-17T04:44:51.797Z,1.20
2023-02-17T04:47:19.209Z,1.30
2023-02-17T04:49:46.579Z,1.20
2023-02-17T04:52:13.969Z,1.10
2023-02-17T04:54:41.314Z,1.10
2023-02-17T04:57:08.727Z,1.10
2023-02-17T04:59:36.190Z,1.10
2023-02-17T05:02:03.768Z,0.90
2023-02-17T05:04:31.352Z,0.80
2023-02-17T05:06:58.763Z,0.90
2023-02-17T05:09:26.479Z,1.10
2023-02-17T05:11:53.957Z,1.20
2023-02-17T05:14:21.341Z,1.20
2023-02-17T05:16:48.884Z,1.10
2023-02-17T05:19:16.331Z,1.00
2023-02-17T05:21:43.829Z,1.00
2023-02-17T05:24:11.180Z,1.00
2023-02-17T05:26:38.789Z,1.00
2023-02-17T05:29:06.239Z,1.00
2023-02-17T05:31:33.717Z,0.90
2023-02-17T05:34:01.207Z,0.90
2023-02-17T05:36:28.708Z,0.90
2023-02-17T05:38:56.101Z,0.90
2023-02-17T05:41:23.561Z,0.90
2023-02-17T05:43:50.947Z,0.90
2023-02-17T05:46:18.360Z,0.80
2023-02-17T05:48:46.117Z,0.80
2023-02-17T05:51:19.174Z,0.80
2023-02-17T05:53:46.561Z,0.80
2023-02-17T05:56:14.092Z,0.80
2023-02-17T05:58:41.502Z,0.80
2023-02-17T06:01:10.312Z,0.80
2023-02-17T06:03:38.037Z,0.80
2023-02-17T06:06:07.527Z,0.80
2023-02-17T06:08:35.626Z,0.70
2023-02-17T06:11:03.098Z,0.70
2023-02-17T06:13:30.554Z,0.80
2023-02-17T06:15:58.130Z,0.80
2023-02-17T06:18:25.562Z,0.80
2023-02-17T06:20:56.508Z,0.80
2023-02-17T06:23:25.414Z,0.90
2023-02-17T06:25:53.874Z,0.90
2023-02-17T06:28:21.663Z,0.90
2023-02-17T06:30:49.054Z,1.00
2023-02-17T06:33:16.466Z,1.00
2023-02-17T06:35:48.657Z,1.00
2023-02-17T06:38:16.255Z,1.00
2023-02-17T06:40:44.337Z,1.00
2023-02-17T06:43:11.827Z,1.00
2023-02-17T06:45:39.375Z,0.90
2023-02-17T06:48:06.939Z,0.90
2023-02-17T06:50:35.045Z,0.90
2023-02-17T06:53:02.487Z,0.90
2023-02-17T06:55:29.992Z,1.00
2023-02-17T06:57:57.622Z,1.10
2023-02-17T07:00:25.121Z,1.10
2023-02-17T07:02:52.671Z,1.10
2023-02-17T07:05:20.242Z,1.10
2023-02-17T07:07:47.665Z,1.20
2023-02-17T07:10:15.081Z,1.30
2023-02-17T07:12:42.511Z,1.50
2023-02-17T07:15:12.320Z,1.50
2023-02-17T07:17:39.997Z,1.70
2023-02-17T07:20:09.270Z,1.70
2023-02-17T07:22:36.688Z,1.70
2023-02-17T07:25:04.923Z,1.80
2023-02-17T07:27:34.613Z,1.80
2023-02-17T07:30:02.077Z,1.90
2023-02-17T07:32:29.666Z,1.90
2023-02-17T07:34:57.043Z,2.00
2023-02-17T07:37:24.412Z,2.10
2023-02-17T07:39:52.415Z,2.20
2023-02-17T07:42:19.816Z,2.20
2023-02-17T07:44:47.799Z,2.30
2023-02-17T07:47:15.238Z,2.50
2023-02-17T07:49:42.707Z,2.50
2023-02-17T07:52:10.279Z,2.70
2023-02-17T07:54:37.839Z,2.70
2023-02-17T07:57:05.237Z,2.90
2023-02-17T07:59:32.610Z,3.10
2023-02-17T08:02:00.066Z,3.30
2023-02-17T08:04:27.858Z,3.50
2023-02-17T08:06:55.623Z,3.60
2023-02-17T08:09:41.780Z,3.90
2023-02-17T08:12:35.552Z,4.10
2023-02-17T08:15:04.290Z,4.20
2023-02-17T08:17:31.765Z,4.50
2023-02-17T08:20:05.835Z,4.70
2023-02-17T08:22:35.875Z,4.90
2023-02-17T08:25:06.201Z,5.10
2023-02-17T08:27:33.856Z,5.20
2023-02-17T08:30:01.308Z,5.30
2023-02-17T08:32:28.696Z,5.50
2023-02-17T08:34:56.830Z,5.60
2023-02-17T08:37:24.818Z,5.80
2023-02-17T08:39:52.279Z,5.90
2023-02-17T08:42:19.898Z,5.80
2023-02-17T08:44:47.479Z,6.10
2023-02-17T08:47:15.290Z,6.20
2023-02-17T08:49:42.763Z,6.30
2023-02-17T08:52:10.286Z,6.40
2023-02-17T08:54:38.493Z,6.60
2023-02-17T08:57:06.049Z,6.60
2023-02-17T08:59:33.555Z,6.40
2023-02-17T09:02:01.007Z,6.70
2023-02-17T09:04:28.482Z,6.80
2023-02-17T09:06:56.888Z,7.00
2023-02-17T09:09:28.776Z,7.00
2023-02-17T09:11:59.427Z,7.00
2023-02-17T09:14:27.695Z,7.20
2023-02-17T09:16:55.972Z,7.30
2023-02-17T09:19:23.553Z,7.20
2023-02-17T09:21:51.122Z,7.50
2023-02-17T09:24:18.995Z,7.60
2023-02-17T09:26:46.490Z,7.60
2023-02-17T09:29:13.988Z,7.70
2023-02-17T09:31:41.734Z,7.90
2023-02-17T09:34:09.307Z,8.10
2023-02-17T09:36:41.841Z,8.10
2023-02-17T09:39:12.414Z,8.20
2023-02-17T09:41:47.957Z,8.40
2023-02-17T09:44:21.671Z,8.60
2023-02-17T09:47:09.638Z,8.60
2023-02-17T09:49:41.238Z,8.70
2023-02-17T09:52:08.637Z,8.80
2023-02-17T09:54:55.265Z,9.00
2023-02-17T09:57:27.312Z,9.00
2023-02-17T10:00:02.855Z,9.10
2023-02-17T10:02:44.759Z,9.10
2023-02-17T10:05:16.488Z,9.00
2023-02-17T10:07:51.293Z,9.30
2023-02-17T10:10:24.035Z,9.40
2023-02-17T10:12:56.324Z,9.40
2023-02-17T10:15:29.255Z,9.60
2023-02-17T10:18:20.089Z,9.70
2023-02-17T10:21:00.111Z,9.80
2023-02-17T10:23:29.110Z,10.00
2023-02-17T10:25:59.658Z,10.00
2023-02-17T10:28:54.320Z,10.10
2023-02-17T10:31:44.359Z,10.20
2023-02-17T10:34:49.378Z,10.40
2023-02-17T10:37:31.076Z,10.30
2023-02-17T10:39:58.844Z,10.50
2023-02-17T10:42:34.555Z,10.50
2023-02-17T10:45:11.043Z,10.60
2023-02-17T10:47:40.014Z,10.70
2023-02-17T10:50:19.274Z,10.70
2023-02-17T10:52:47.195Z,10.70
2023-02-17T10:55:52.810Z,10.80
2023-02-17T10:58:24.483Z,10.80
2023-02-17T11:00:56.529Z,10.90
2023-02-17T11:03:29.019Z,11.10
2023-02-17T11:06:01.117Z,11.00
2023-02-17T11:08:34.870Z,11.10
2023-02-17T11:11:13.511Z,11.00
2023-02-17T11:13:46.336Z,11.20
2023-02-17T11:16:28.308Z,11.30
2023-02-17T11:18:55.893Z,11.40
2023-02-17T11:21:23.476Z,11.50
2023-02-17T11:24:02.103Z,11.70
2023-02-17T11:26:36.400Z,11.70
2023-02-17T11:29:22.279Z,11.90
2023-02-17T11:32:01.644Z,11.90
2023-02-17T11:34:33.216Z,11.80
2023-02-17T11:37:19.209Z,11.80
2023-02-17T11:39:49.482Z,11.80
2023-02-17T11:42:21.486Z,12.00
2023-02-17T11:44:49.634Z,12.10
2023-02-17T11:47:26.525Z,12.10
2023-02-17T11:50:41.404Z,12.20
2023-02-17T11:53:30.321Z,12.10
2023-02-17T11:56:08.079Z,12.30
2023-02-17T11:59:12.485Z,12.40
2023-02-17T12:02:13.605Z,12.50
2023-02-17T12:04:59.454Z,12.50
2023-02-17T12:07:59.386Z,12.50
2023-02-17T12:10:51.719Z,12.50
2023-02-17T12:13:47.119Z,12.60
2023-02-17T12:16:44.037Z,12.50
2023-02-17T12:19:37.101Z,12.50
2023-02-17T12:22:32.951Z,12.30
2023-02-17T12:25:33.114Z,12.50
2023-02-17T12:28:46.809Z,12.60
2023-02-17T12:31:38.549Z,12.60
2023-02-17T12:34:30.419Z,12.50
2023-02-17T12:37:00.528Z,12.60
2023-02-17T12:39:40.166Z,12.70
2023-02-17T12:42:30.584Z,12.80
2023-02-17T12:45:05.443Z,12.80
2023-02-17T12:47:47.572Z,12.80
2023-02-17T12:50:22.812Z,12.90
2023-02-17T12:52:55.505Z,13.10
2023-02-17T12:55:48.455Z,13.30
2023-02-17T12:58:23.196Z,13.30
2023-02-17T13:01:13.644Z,13.30
2023-02-17T13:03:41.085Z,13.30
2023-02-17T13:06:36.699Z,13.50
2023-02-17T13:09:15.680Z,13.50
2023-02-17T13:11:45.542Z,13.50
2023-02-17T13:14:24.278Z,13.40
2023-02-17T13:16:51.844Z,13.50
2023-02-17T13:19:37.512Z,13.50
2023-02-17T13:22:05.652Z,13.50
2023-02-17T13:24:39.782Z,13.60
2023-02-17T13:27:20.303Z,13.70
2023-02-17T13:30:17.159Z,14.10
2023-02-17T13:32:45.182Z,14.20
2023-02-17T13:35:30.598Z,14.50
2023-02-17T13:37:58.010Z,14.70
2023-02-17T13:40:33.869Z,15.00
2023-02-17T13:43:31.362Z,15.00
2023-02-17T13:46:01.895Z,14.60
2023-02-17T13:48:34.312Z,14.70
2023-02-17T13:51:02.517Z,14.60
2023-02-17T13:53:38.785Z,14.70
2023-02-17T13:56:12.534Z,14.70
2023-02-17T13:58:41.481Z,14.80
2023-02-17T14:01:19.019Z,14.70
2023-02-17T14:03:47.526Z,14.60
2023-02-17T14:06:36.595Z,14.80
2023-02-17T14:09:34.526Z,14.60
2023-02-17T14:12:04.245Z,14.40
2023-02-17T14:14:34.475Z,14.40
2023-02-17T14:17:26.833Z,14.40
2023-02-17T14:19:54.236Z,14.20
2023-02-17T14:22:31.235Z,14.20
2023-02-17T14:25:06.209Z,14.30
2023-02-17T14:27:52.830Z,14.20
2023-02-17T14:30:31.899Z,14.20
2023-02-17T14:33:18.470Z,14.40
2023-02-17T14:35:58.259Z,14.50
2023-02-17T14:38:31.936Z,14.40
2023-02-17T14:41:01.087Z,14.30
2023-02-17T14:43:28.617Z,14.20
2023-02-17T14:45:56.401Z,14.10
2023-02-17T14:48:27.375Z,14.00
2023-02-17T14:50:57.464Z,14.10
2023-02-17T14:53:26.668Z,13.90
2023-02-17T14:56:16.994Z,13.80
2023-02-17T14:58:44.768Z,13.80
2023-02-17T15:01:15.596Z,13.90
2023-02-17T15:03:43.136Z,13.80
2023-02-17T15:06:28.006Z,14.00
2023-02-17T15:08:56.868Z,14.00
2023-02-17T15:11:30.095Z,14.00
2023-02-17T15:13:57.629Z,14.00
2023-02-17T15:16:25.141Z,14.20
2023-02-17T15:18:52.567Z,14.20
2023-02-17T15:21:34.583Z,14.20
2023-02-17T15:24:03.498Z,14.40
2023-02-17T15:26:31.161Z,14.30
2023-02-17T15:28:59.462Z,14.30
2023-02-17T15:31:29.157Z,14.30
2023-02-17T15:33:59.017Z,14.20
2023-02-17T15:36:28.723Z,14.10
2023-02-17T15:38:56.157Z,14.00
2023-02-17T15:41:26.870Z,13.90
2023-02-17T15:43:57.076Z,13.70
2023-02-17T15:46:31.199Z,13.70
2023-02-17T15:48:59.208Z,13.50
2023-02-17T15:51:26.626Z,13.60
2023-02-17T15:53:54.011Z,13.60
2023-02-17T15:56:26.868Z,13.60
2023-02-17T15:58:55.004Z,13.60
2023-02-17T16:01:28.035Z,13.50
2023-02-17T16:03:57.293Z,13.50
2023-02-17T16:06:26.020Z,13.60
2023-02-17T16:08:54.036Z,13.60
2023-02-17T16:11:23.009Z,13.40
2023-02-17T16:13:51.344Z,13.20
2023-02-17T16:16:25.471Z,13.00
2023-02-17T16:18:52.974Z,13.10
2023-02-17T16:21:20.510Z,13.00
2023-02-17T16:23:48.000Z,12.90
2023-02-17T16:26:34.679Z,12.70
2023-02-17T16:29:09.569Z,12.40
2023-02-17T16:31:37.018Z,12.20
2023-02-17T16:34:04.547Z,12.00
2023-02-17T16:36:35.496Z,11.80
2023-02-17T16:39:10.912Z,11.70
2023-02-17T16:41:38.775Z,11.60
2023-02-17T16:44:07.652Z,11.40
2023-02-17T16:46:37.364Z,11.10
2023-02-17T16:49:19.838Z,10.90
2023-02-17T16:51:47.375Z,10.80
2023-02-17T16:54:16.903Z,10.80
2023-02-17T16:56:47.755Z,10.90
2023-02-17T16:59:18.955Z,11.10
2023-02-17T17:01:47.530Z,11.00
2023-02-17T17:04:15.944Z,10.80
2023-02-17T17:06:49.397Z,10.60
2023-02-17T17:09:19.028Z,10.50
2023-02-17T17:11:46.813Z,10.60
2023-02-17T17:14:14.535Z,10.70
2023-02-17T17:16:45.502Z,10.60
2023-02-17T17:19:13.692Z,10.70
2023-02-17T17:21:41.101Z,10.90
2023-02-17T17:24:08.538Z,11.10
2023-02-17T17:26:39.273Z,11.30
2023-02-17T17:29:08.334Z,11.40
2023-02-17T17:31:35.860Z,11.30
2023-02-17T17:34:03.552Z,11.30
2023-02-17T17:36:34.363Z,11.10
2023-02-17T17:39:04.204Z,11.00
2023-02-17T17:41:32.171Z,11.00
2023-02-17T17:43:59.951Z,11.00
2023-02-17T17:46:34.331Z,10.90
2023-02-17T17:49:04.568Z,10.90
2023-02-17T17:51:33.848Z,10.70
2023-02-17T17:54:01.564Z,10.70
2023-02-17T17:56:42.903Z,10.60
2023-02-17T17:59:12.670Z,10.60
2023-02-17T18:01:40.193Z,10.60
2023-02-17T18:04:09.373Z,10.60
2023-02-17T18:06:48.663Z,10.50
2023-02-17T18:09:31.236Z,10.50
2023-02-17T18:12:04.445Z,10.40
2023-02-17T18:14:32.464Z,10.40
2023-02-17T18:16:59.976Z,10.30
2023-02-17T18:19:29.119Z,10.30
2023-02-17T18:21:56.582Z,10.20
2023-02-17T18:24:24.041Z,10.20
2023-02-17T18:26:52.270Z,10.10
2023-02-17T18:29:20.291Z,10.10
2023-02-17T18:31:47.837Z,10.00
2023-02-17T18:34:15.442Z,10.00
2023-02-17T18:36:43.104Z,10.00
2023-02-17T18:39:10.629Z,10.00
2023-02-17T18:41:38.162Z,10.00
2023-02-17T18:44:06.229Z,9.90
2023-02-17T18:46:34.015Z,9.80
2023-02-17T18:49:01.496Z,9.60
2023-02-17T18:51:28.950Z,9.50
2023-02-17T18:53:58.516Z,9.40
2023-02-17T18:56:29.912Z,9.20
2023-02-17T18:58:57.618Z,8.80
2023-02-17T19:01:30.935Z,9.00
2023-02-17T19:03:58.990Z,9.00
2023-02-17T19:06:29.333Z,9.20
2023-02-17T19:08:57.245Z,9.20
2023-02-17T19:11:25.016Z,9.10
2023-02-17T19:13:53.029Z,9.30
2023-02-17T19:16:24.592Z,9.40
2023-02-17T19:18:52.493Z,9.50
2023-02-17T19:21:20.833Z,9.50
2023-02-17T19:23:49.348Z,9.50
2023-02-17T19:26:17.915Z,9.50
2023-02-17T19:28:46.064Z,9.50
2023-02-17T19:31:16.552Z,9.50
2023-02-17T19:33:45.629Z,9.50
2023-02-17T19:36:18.822Z,9.50
2023-02-17T19:38:47.670Z,9.40
2023-02-17T19:41:16.057Z,9.40
2023-02-17T19:43:44.193Z,9.40
2023-02-17T19:46:18.157Z,9.10
2023-02-17T19:48:45.931Z,9.00
2023-02-17T19:51:16.214Z,8.80
2023-02-17T19:53:44.171Z,8.40
2023-02-17T19:56:19.472Z,8.10
2023-02-17T19:58:47.730Z,7.90
2023-02-17T20:01:19.186Z,7.80
2023-02-17T20:03:46.751Z,7.70
2023-02-17T20:06:17.528Z,7.80
2023-02-17T20:08:52.626Z,7.60
2023-02-17T20:11:20.523Z,7.40
2023-02-17T20:13:47.986Z,7.20
2023-02-17T20:16:16.799Z,7.20
2023-02-17T20:18:46.833Z,7.20
2023-02-17T20:21:16.721Z,7.10
2023-02-17T20:23:44.222Z,7.30
2023-02-17T20:26:17.430Z,7.30
2023-02-17T20:28:45.425Z,7.50
2023-02-17T20:31:13.244Z,7.40
2023-02-17T20:33:41.321Z,7.30
2023-02-17T20:36:09.992Z,7.20
2023-02-17T20:38:38.602Z,7.10
2023-02-17T20:41:07.764Z,7.10
2023-02-17T20:43:37.617Z,7.20
2023-02-17T20:46:05.600Z,7.40
2023-02-17T20:48:33.708Z,7.40
2023-02-17T20:51:01.213Z,7.30
2023-02-17T20:53:28.644Z,7.30
2023-02-17T20:55:56.256Z,7.40
2023-02-17T20:58:23.654Z,7.30
2023-02-17T21:00:51.176Z,7.30
2023-02-17T21:03:18.709Z,7.20
2023-02-17T21:05:46.164Z,7.40
2023-02-17T21:08:13.576Z,7.60
2023-02-17T21:10:41.069Z,7.70
2023-02-17T21:13:08.500Z,7.40
2023-02-17T21:15:36.115Z,7.10
2023-02-17T21:18:05.600Z,7.30
2023-02-17T21:20:33.531Z,7.20
2023-02-17T21:23:01.116Z,6.80
2023-02-17T21:25:28.660Z,6.80
2023-02-17T21:27:56.042Z,6.90
2023-02-17T21:30:25.288Z,7.10
2023-02-17T21:32:55.122Z,7.30
2023-02-17T21:35:22.585Z,7.20
2023-02-17T21:37:50.003Z,7.30
2023-02-17T21:40:17.494Z,7.50
2023-02-17T21:43:03.518Z,7.50
2023-02-17T21:45:37.336Z,7.60
2023-02-17T21:48:06.594Z,7.60
2023-02-17T21:50:33.980Z,7.60
2023-02-17T21:53:01.507Z,7.50
2023-02-17T21:55:28.970Z,7.60
2023-02-17T21:57:56.429Z,7.60
2023-02-17T22:00:23.992Z,7.60
2023-02-17T22:02:51.411Z,7.30
2023-02-17T22:05:18.891Z,6.90
2023-02-17T22:07:50.120Z,6.70
2023-02-17T22:10:17.952Z,6.60
2023-02-17T22:12:45.452Z,6.40
2023-02-17T22:15:14.664Z,6.20
2023-02-17T22:17:42.322Z,5.90
2023-02-17T22:20:09.971Z,5.70
2023-02-17T22:22:37.390Z,5.60
2023-02-17T22:25:05.123Z,5.90
2023-02-17T22:27:33.274Z,5.80
2023-02-17T22:30:00.732Z,5.80
2023-02-17T22:32:28.238Z,5.90
2023-02-17T22:34:55.740Z,5.80
2023-02-17T22:37:23.320Z,5.70
2023-02-17T22:39:56.998Z,5.50
2023-02-17T22:42:24.613Z,5.40
2023-02-17T22:44:52.033Z,5.40
2023-02-17T22:47:19.476Z,5.30
2023-02-17T22:49:46.958Z,5.20
2023-02-17T22:52:14.407Z,5.30
2023-02-17T22:54:41.862Z,5.60
2023-02-17T22:57:09.273Z,5.80
2023-02-17T22:59:36.701Z,5.90
2023-02-17T23:02:04.106Z,6.10
2023-02-17T23:04:31.544Z,6.40
2023-02-17T23:06:59.192Z,6.60
2023-02-17T23:09:26.632Z,6.70
2023-02-17T23:11:54.534Z,6.70
2023-02-17T23:14:37.275Z,6.70
2023-02-17T23:17:11.211Z,6.20
2023-02-17T23:19:39.615Z,6.20
2023-02-17T23:22:15.912Z,6.50
2023-02-17T23:24:44.644Z,6.70
2023-02-17T23:27:12.518Z,6.90
2023-02-17T23:29:41.926Z,7.00
2023-02-17T23:32:09.476Z,6.90
2023-02-17T23:34:36.876Z,6.50
2023-02-17T23:37:04.306Z,6.30
2023-02-17T23:39:31.746Z,6.10
2023-02-17T23:41:59.219Z,5.80
2023-02-17T23:44:26.633Z,5.50
2023-02-17T23:46:54.108Z,5.30
2023-02-17T23:49:21.526Z,5.50
2023-02-17T23:51:49.034Z,5.50
2023-02-17T23:54:16.567Z,5.60
2023-02-17T23:56:44.056Z,5.40
2023-02-17T23:59:11.705Z,5.30
